sensor_id;sensor_type;location;lat;lon;timestamp;pressure;altitude;pressure_sealevel;temperature;humidity
76321;BME280;65132;52.088;5.402;2023-03-20T00:02:09;102049.44;;;8.54;92.26
76321;BME280;65132;52.088;5.402;2023-03-20T00:04:39;102051.25;;;8.53;91.61
76321;BME280;65132;52.088;5.402;2023-03-20T00:07:08;102048.66;;;8.52;91.14
76321;BME280;65132;52.088;5.402;2023-03-20T00:09:34;102050.53;;;8.51;91.58
76321;BME280;65132;52.088;5.402;2023-03-20T00:12:01;102050.41;;;8.53;91.38
76321;BME280;65132;52.088;5.402;2023-03-20T00:14:27;102055.50;;;8.57;91.24
76321;BME280;65132;52.088;5.402;2023-03-20T00:16:58;102062.13;;;8.39;92.03
76321;BME280;65132;52.088;5.402;2023-03-20T00:19:26;102057.94;;;8.48;92.01
76321;BME280;65132;52.088;5.402;2023-03-20T00:21:57;102054.72;;;8.55;92.26
76321;BME280;65132;52.088;5.402;2023-03-20T00:24:24;102053.28;;;8.49;92.03
76321;BME280;65132;52.088;5.402;2023-03-20T00:26:54;102043.22;;;8.39;93.32
76321;BME280;65132;52.088;5.402;2023-03-20T00:31:50;102050.66;;;8.35;93.09
76321;BME280;65132;52.088;5.402;2023-03-20T00:34:18;102051.25;;;8.26;94.00
76321;BME280;65132;52.088;5.402;2023-03-20T00:36:46;102039.41;;;8.29;94.15
76321;BME280;65132;52.088;5.402;2023-03-20T00:39:14;102042.84;;;8.31;94.22
76321;BME280;65132;52.088;5.402;2023-03-20T00:46:59;102054.13;;;8.37;93.72
76321;BME280;65132;52.088;5.402;2023-03-20T00:49:30;102051.78;;;8.45;93.08
76321;BME280;65132;52.088;5.402;2023-03-20T00:51:57;102062.03;;;8.53;92.45
76321;BME280;65132;52.088;5.402;2023-03-20T00:54:24;102056.56;;;8.55;93.33
76321;BME280;65132;52.088;5.402;2023-03-20T00:57:00;102072.28;;;8.48;92.55
76321;BME280;65132;52.088;5.402;2023-03-20T00:59:32;102082.00;;;8.51;92.78
76321;BME280;65132;52.088;5.402;2023-03-20T01:02:00;102083.94;;;8.48;92.81
76321;BME280;65132;52.088;5.402;2023-03-20T01:04:34;102097.19;;;8.39;92.85
76321;BME280;65132;52.088;5.402;2023-03-20T01:07:03;102094.09;;;8.31;92.80
76321;BME280;65132;52.088;5.402;2023-03-20T01:09:29;102100.94;;;8.36;92.63
76321;BME280;65132;52.088;5.402;2023-03-20T01:11:58;102095.06;;;8.30;92.46
76321;BME280;65132;52.088;5.402;2023-03-20T01:14:25;102088.31;;;8.37;91.95
76321;BME280;65132;52.088;5.402;2023-03-20T01:16:54;102076.09;;;8.31;92.63
76321;BME280;65132;52.088;5.402;2023-03-20T01:19:20;102077.06;;;8.30;91.18
76321;BME280;65132;52.088;5.402;2023-03-20T01:21:49;102078.00;;;8.29;90.15
76321;BME280;65132;52.088;5.402;2023-03-20T01:24:16;102081.38;;;8.33;89.67
76321;BME280;65132;52.088;5.402;2023-03-20T01:26:44;102096.50;;;8.35;90.04
76321;BME280;65132;52.088;5.402;2023-03-20T01:29:22;102096.97;;;8.42;89.23
76321;BME280;65132;52.088;5.402;2023-03-20T01:31:50;102089.47;;;8.33;89.33
76321;BME280;65132;52.088;5.402;2023-03-20T01:34:18;102079.75;;;8.30;88.58
76321;BME280;65132;52.088;5.402;2023-03-20T01:39:18;102086.09;;;8.29;87.82
76321;BME280;65132;52.088;5.402;2023-03-20T01:41:45;102080.53;;;8.32;87.30
76321;BME280;65132;52.088;5.402;2023-03-20T01:44:20;102086.97;;;8.30;87.02
76321;BME280;65132;52.088;5.402;2023-03-20T01:46:54;102077.34;;;8.26;86.88
76321;BME280;65132;52.088;5.402;2023-03-20T01:51:49;102087.38;;;8.24;87.88
76321;BME280;65132;52.088;5.402;2023-03-20T01:54:29;102078.19;;;8.12;87.62
76321;BME280;65132;52.088;5.402;2023-03-20T01:57:14;102068.03;;;8.03;88.58
76321;BME280;65132;52.088;5.402;2023-03-20T01:59:57;102070.22;;;7.97;88.86
76321;BME280;65132;52.088;5.402;2023-03-20T02:02:29;102065.72;;;7.97;88.62
76321;BME280;65132;52.088;5.402;2023-03-20T02:05:02;102059.44;;;7.97;89.15
76321;BME280;65132;52.088;5.402;2023-03-20T02:07:33;102069.59;;;7.93;89.00
76321;BME280;65132;52.088;5.402;2023-03-20T02:10:07;102078.03;;;8.01;88.69
76321;BME280;65132;52.088;5.402;2023-03-20T02:12:34;102074.09;;;8.07;88.19
76321;BME280;65132;52.088;5.402;2023-03-20T02:15:03;102073.41;;;8.03;88.25
76321;BME280;65132;52.088;5.402;2023-03-20T02:17:30;102058.88;;;7.92;88.54
76321;BME280;65132;52.088;5.402;2023-03-20T02:28:00;102066.47;;;7.85;89.99
76321;BME280;65132;52.088;5.402;2023-03-20T02:30:45;102060.53;;;7.94;88.56
76321;BME280;65132;52.088;5.402;2023-03-20T02:33:40;102050.53;;;7.82;89.38
76321;BME280;65132;52.088;5.402;2023-03-20T02:47:01;102061.50;;;7.79;90.32
76321;BME280;65132;52.088;5.402;2023-03-20T02:49:44;102059.00;;;7.76;90.01
76321;BME280;65132;52.088;5.402;2023-03-20T02:54:57;102055.31;;;7.63;90.11
76321;BME280;65132;52.088;5.402;2023-03-20T03:00:44;102034.19;;;7.57;90.40
76321;BME280;65132;52.088;5.402;2023-03-20T03:03:53;102028.69;;;7.59;89.92
76321;BME280;65132;52.088;5.402;2023-03-20T03:06:33;102019.94;;;7.55;90.72
76321;BME280;65132;52.088;5.402;2023-03-20T03:09:10;102002.81;;;7.42;91.44
76321;BME280;65132;52.088;5.402;2023-03-20T03:11:51;102002.88;;;7.41;90.23
76321;BME280;65132;52.088;5.402;2023-03-20T03:14:38;101990.03;;;7.46;90.57
76321;BME280;65132;52.088;5.402;2023-03-20T03:17:08;102006.56;;;7.40;90.57
76321;BME280;65132;52.088;5.402;2023-03-20T03:19:37;102008.88;;;7.32;90.40
76321;BME280;65132;52.088;5.402;2023-03-20T03:22:07;102007.06;;;7.32;90.25
76321;BME280;65132;52.088;5.402;2023-03-20T03:24:38;102007.59;;;7.23;90.94
76321;BME280;65132;52.088;5.402;2023-03-20T03:27:19;102008.28;;;7.26;90.71
76321;BME280;65132;52.088;5.402;2023-03-20T03:29:51;102012.91;;;7.24;90.69
76321;BME280;65132;52.088;5.402;2023-03-20T03:32:27;102022.78;;;7.24;90.64
76321;BME280;65132;52.088;5.402;2023-03-20T03:34:59;102010.31;;;7.23;90.41
76321;BME280;65132;52.088;5.402;2023-03-20T03:41:12;102006.13;;;7.03;90.85
76321;BME280;65132;52.088;5.402;2023-03-20T03:43:56;101993.53;;;7.04;91.27
76321;BME280;65132;52.088;5.402;2023-03-20T03:49:04;101994.28;;;6.92;91.60
76321;BME280;65132;52.088;5.402;2023-03-20T03:51:34;101992.53;;;6.77;92.05
76321;BME280;65132;52.088;5.402;2023-03-20T03:54:11;101988.59;;;6.82;91.75
76321;BME280;65132;52.088;5.402;2023-03-20T03:56:42;101997.81;;;6.78;92.69
76321;BME280;65132;52.088;5.402;2023-03-20T03:59:19;101985.13;;;6.80;92.28
76321;BME280;65132;52.088;5.402;2023-03-20T04:01:49;101979.94;;;6.77;92.28
76321;BME280;65132;52.088;5.402;2023-03-20T04:04:20;101980.53;;;6.82;92.26
76321;BME280;65132;52.088;5.402;2023-03-20T04:06:49;101977.59;;;6.71;92.54
76321;BME280;65132;52.088;5.402;2023-03-20T04:09:15;101974.03;;;6.71;92.77
76321;BME280;65132;52.088;5.402;2023-03-20T04:11:49;101971.19;;;6.74;92.31
76321;BME280;65132;52.088;5.402;2023-03-20T04:14:17;101976.72;;;6.71;92.25
76321;BME280;65132;52.088;5.402;2023-03-20T04:16:48;101967.63;;;6.73;91.78
76321;BME280;65132;52.088;5.402;2023-03-20T04:19:15;101965.47;;;6.64;92.30
76321;BME280;65132;52.088;5.402;2023-03-20T04:21:41;101961.06;;;6.63;92.56
76321;BME280;65132;52.088;5.402;2023-03-20T04:24:07;101970.69;;;6.67;91.92
76321;BME280;65132;52.088;5.402;2023-03-20T04:26:34;101960.69;;;6.69;91.35
76321;BME280;65132;52.088;5.402;2023-03-20T04:29:01;101964.94;;;6.73;91.42
76321;BME280;65132;52.088;5.402;2023-03-20T04:31:27;101971.00;;;6.77;91.05
76321;BME280;65132;52.088;5.402;2023-03-20T04:33:54;101960.25;;;6.77;90.80
76321;BME280;65132;52.088;5.402;2023-03-20T04:36:25;101970.63;;;6.83;91.17
76321;BME280;65132;52.088;5.402;2023-03-20T04:38:51;101973.41;;;6.81;90.31
76321;BME280;65132;52.088;5.402;2023-03-20T04:41:23;101971.28;;;6.72;91.59
76321;BME280;65132;52.088;5.402;2023-03-20T04:43:49;101977.41;;;6.74;90.87
76321;BME280;65132;52.088;5.402;2023-03-20T04:46:24;101986.28;;;6.76;91.20
76321;BME280;65132;52.088;5.402;2023-03-20T04:48:53;101973.81;;;6.89;90.70
76321;BME280;65132;52.088;5.402;2023-03-20T04:51:19;101967.53;;;6.75;91.46
76321;BME280;65132;52.088;5.402;2023-03-20T04:53:50;101979.06;;;6.77;91.25
76321;BME280;65132;52.088;5.402;2023-03-20T04:56:20;101981.47;;;6.81;90.68
76321;BME280;65132;52.088;5.402;2023-03-20T04:58:46;101968.31;;;6.77;91.38
76321;BME280;65132;52.088;5.402;2023-03-20T05:01:13;101968.91;;;6.82;90.56
76321;BME280;65132;52.088;5.402;2023-03-20T05:03:39;101972.56;;;6.81;91.00
76321;BME280;65132;52.088;5.402;2023-03-20T05:06:10;101969.88;;;6.81;91.55
76321;BME280;65132;52.088;5.402;2023-03-20T05:08:39;101961.28;;;6.74;91.27
76321;BME280;65132;52.088;5.402;2023-03-20T05:11:06;101967.44;;;6.76;90.66
76321;BME280;65132;52.088;5.402;2023-03-20T05:13:35;101964.66;;;6.78;91.16
76321;BME280;65132;52.088;5.402;2023-03-20T05:16:02;101969.19;;;6.77;91.70
76321;BME280;65132;52.088;5.402;2023-03-20T05:18:32;101956.59;;;6.78;91.32
76321;BME280;65132;52.088;5.402;2023-03-20T05:21:03;101961.97;;;6.78;91.63
76321;BME280;65132;52.088;5.402;2023-03-20T05:23:30;101957.66;;;6.75;91.52
76321;BME280;65132;52.088;5.402;2023-03-20T05:25:59;101962.16;;;6.75;91.63
76321;BME280;65132;52.088;5.402;2023-03-20T05:28:26;101963.91;;;6.76;91.56
76321;BME280;65132;52.088;5.402;2023-03-20T05:30:53;101961.97;;;6.78;91.27
76321;BME280;65132;52.088;5.402;2023-03-20T05:33:21;101965.34;;;6.81;91.24
76321;BME280;65132;52.088;5.402;2023-03-20T05:35:48;101954.66;;;6.80;91.18
76321;BME280;65132;52.088;5.402;2023-03-20T05:38:15;101962.53;;;6.83;91.06
76321;BME280;65132;52.088;5.402;2023-03-20T05:40:41;101951.97;;;6.80;91.31
76321;BME280;65132;52.088;5.402;2023-03-20T05:43:10;101965.34;;;6.81;91.32
76321;BME280;65132;52.088;5.402;2023-03-20T05:45:42;101975.41;;;6.78;91.73
76321;BME280;65132;52.088;5.402;2023-03-20T05:48:12;101966.31;;;6.80;91.23
76321;BME280;65132;52.088;5.402;2023-03-20T05:50:38;101970.13;;;6.76;91.75
76321;BME280;65132;52.088;5.402;2023-03-20T05:53:07;101972.47;;;6.82;91.10
76321;BME280;65132;52.088;5.402;2023-03-20T05:55:34;101982.53;;;6.79;91.42
76321;BME280;65132;52.088;5.402;2023-03-20T05:58:06;101987.53;;;6.85;91.29
76321;BME280;65132;52.088;5.402;2023-03-20T06:00:33;101989.63;;;6.80;92.31
76321;BME280;65132;52.088;5.402;2023-03-20T06:02:59;101991.47;;;6.79;91.57
76321;BME280;65132;52.088;5.402;2023-03-20T06:05:26;101995.03;;;6.80;91.20
76321;BME280;65132;52.088;5.402;2023-03-20T06:07:57;101994.09;;;6.81;91.84
76321;BME280;65132;52.088;5.402;2023-03-20T06:10:23;101995.25;;;6.91;91.16
76321;BME280;65132;52.088;5.402;2023-03-20T06:12:53;101984.84;;;6.85;91.09
76321;BME280;65132;52.088;5.402;2023-03-20T06:15:23;101986.59;;;6.86;91.92
76321;BME280;65132;52.088;5.402;2023-03-20T06:17:50;101976.59;;;6.88;91.25
76321;BME280;65132;52.088;5.402;2023-03-20T06:20:19;101985.44;;;6.90;91.17
76321;BME280;65132;52.088;5.402;2023-03-20T06:22:45;101986.22;;;6.92;91.28
76321;BME280;65132;52.088;5.402;2023-03-20T06:25:14;101984.66;;;6.88;91.37
76321;BME280;65132;52.088;5.402;2023-03-20T06:27:41;101989.19;;;6.87;91.27
76321;BME280;65132;52.088;5.402;2023-03-20T06:30:08;101986.69;;;6.84;91.43
76321;BME280;65132;52.088;5.402;2023-03-20T06:32:35;102004.66;;;6.84;91.62
76321;BME280;65132;52.088;5.402;2023-03-20T06:35:02;101995.81;;;6.82;91.53
76321;BME280;65132;52.088;5.402;2023-03-20T06:37:32;101998.88;;;6.76;92.18
76321;BME280;65132;52.088;5.402;2023-03-20T06:40:00;102005.88;;;6.78;91.33
76321;BME280;65132;52.088;5.402;2023-03-20T06:42:31;102007.53;;;6.81;92.12
76321;BME280;65132;52.088;5.402;2023-03-20T06:44:57;102002.50;;;6.75;92.34
76321;BME280;65132;52.088;5.402;2023-03-20T06:47:26;102004.16;;;6.77;92.37
76321;BME280;65132;52.088;5.402;2023-03-20T06:49:53;102002.91;;;6.83;91.73
76321;BME280;65132;52.088;5.402;2023-03-20T06:52:21;102003.59;;;6.86;91.94
76321;BME280;65132;52.088;5.402;2023-03-20T06:54:50;102003.88;;;6.82;92.03
76321;BME280;65132;52.088;5.402;2023-03-20T06:57:20;102006.69;;;6.94;91.79
76321;BME280;65132;52.088;5.402;2023-03-20T06:59:53;102014.78;;;6.94;91.47
76321;BME280;65132;52.088;5.402;2023-03-20T07:02:21;102017.03;;;6.86;91.73
76321;BME280;65132;52.088;5.402;2023-03-20T07:04:52;102017.72;;;6.90;91.87
76321;BME280;65132;52.088;5.402;2023-03-20T07:07:23;102016.78;;;6.91;91.71
76321;BME280;65132;52.088;5.402;2023-03-20T07:09:52;102009.75;;;6.88;91.44
76321;BME280;65132;52.088;5.402;2023-03-20T07:12:19;102014.19;;;6.89;91.76
76321;BME280;65132;52.088;5.402;2023-03-20T07:14:50;102015.81;;;6.92;91.38
76321;BME280;65132;52.088;5.402;2023-03-20T07:17:17;102021.00;;;6.95;91.28
76321;BME280;65132;52.088;5.402;2023-03-20T07:19:43;102019.88;;;6.99;91.77
76321;BME280;65132;52.088;5.402;2023-03-20T07:22:21;102022.66;;;6.97;91.77
76321;BME280;65132;52.088;5.402;2023-03-20T07:24:51;102029.75;;;6.98;92.16
76321;BME280;65132;52.088;5.402;2023-03-20T07:27:22;102019.56;;;7.03;91.61
76321;BME280;65132;52.088;5.402;2023-03-20T07:29:50;102027.56;;;7.05;90.52
76321;BME280;65132;52.088;5.402;2023-03-20T07:32:21;102015.25;;;7.01;91.17
76321;BME280;65132;52.088;5.402;2023-03-20T07:34:56;102024.47;;;6.97;90.19
76321;BME280;65132;52.088;5.402;2023-03-20T07:37:22;102024.13;;;7.03;90.79
76321;BME280;65132;52.088;5.402;2023-03-20T07:39:49;102013.50;;;7.00;90.90
76321;BME280;65132;52.088;5.402;2023-03-20T07:42:17;102018.72;;;7.03;91.15
76321;BME280;65132;52.088;5.402;2023-03-20T07:44:43;102012.38;;;7.04;90.45
76321;BME280;65132;52.088;5.402;2023-03-20T07:47:10;102014.31;;;7.16;90.03
76321;BME280;65132;52.088;5.402;2023-03-20T07:49:40;102022.97;;;7.21;90.33
76321;BME280;65132;52.088;5.402;2023-03-20T07:52:09;102023.84;;;7.21;89.95
76321;BME280;65132;52.088;5.402;2023-03-20T07:54:37;102017.16;;;7.28;90.05
76321;BME280;65132;52.088;5.402;2023-03-20T07:57:04;102022.69;;;7.25;89.86
76321;BME280;65132;52.088;5.402;2023-03-20T07:59:32;102025.22;;;7.28;90.05
76321;BME280;65132;52.088;5.402;2023-03-20T08:01:58;102014.16;;;7.33;88.79
76321;BME280;65132;52.088;5.402;2023-03-20T08:04:24;102020.22;;;7.37;89.39
76321;BME280;65132;52.088;5.402;2023-03-20T08:06:52;102012.91;;;7.39;89.49
76321;BME280;65132;52.088;5.402;2023-03-20T08:09:22;102024.25;;;7.44;87.94
76321;BME280;65132;52.088;5.402;2023-03-20T08:11:50;102013.19;;;7.34;88.47
76321;BME280;65132;52.088;5.402;2023-03-20T08:14:19;102019.72;;;7.58;87.72
76321;BME280;65132;52.088;5.402;2023-03-20T08:16:51;102014.06;;;7.63;87.54
76321;BME280;65132;52.088;5.402;2023-03-20T08:19:37;102012.31;;;7.76;86.80
76321;BME280;65132;52.088;5.402;2023-03-20T08:22:04;102018.00;;;7.71;85.49
76321;BME280;65132;52.088;5.402;2023-03-20T08:24:31;102017.19;;;7.83;86.09
76321;BME280;65132;52.088;5.402;2023-03-20T08:26:57;102015.03;;;7.76;85.56
76321;BME280;65132;52.088;5.402;2023-03-20T08:29:25;102008.44;;;7.80;85.66
76321;BME280;65132;52.088;5.402;2023-03-20T08:31:52;102012.09;;;7.93;85.78
76321;BME280;65132;52.088;5.402;2023-03-20T08:34:21;102005.69;;;7.81;85.44
76321;BME280;65132;52.088;5.402;2023-03-20T08:36:49;102007.75;;;8.04;84.08
76321;BME280;65132;52.088;5.402;2023-03-20T08:39:15;102009.09;;;7.97;84.12
76321;BME280;65132;52.088;5.402;2023-03-20T08:41:42;102010.84;;;7.98;84.55
76321;BME280;65132;52.088;5.402;2023-03-20T08:44:12;102011.59;;;8.00;85.72
76321;BME280;65132;52.088;5.402;2023-03-20T08:46:38;101994.72;;;8.11;83.78
76321;BME280;65132;52.088;5.402;2023-03-20T08:49:05;101998.31;;;8.11;83.66
76321;BME280;65132;52.088;5.402;2023-03-20T08:51:35;102008.09;;;8.26;83.55
76321;BME280;65132;52.088;5.402;2023-03-20T08:54:04;102003.59;;;8.27;83.65
76321;BME280;65132;52.088;5.402;2023-03-20T08:56:33;102011.44;;;8.44;81.73
76321;BME280;65132;52.088;5.402;2023-03-20T08:59:00;101999.88;;;8.42;82.17
76321;BME280;65132;52.088;5.402;2023-03-20T09:01:26;102006.19;;;8.28;84.14
76321;BME280;65132;52.088;5.402;2023-03-20T09:04:15;102005.97;;;8.31;83.47
76321;BME280;65132;52.088;5.402;2023-03-20T09:06:41;102010.22;;;8.21;84.57
76321;BME280;65132;52.088;5.402;2023-03-20T09:09:10;102010.78;;;8.12;86.03
76321;BME280;65132;52.088;5.402;2023-03-20T09:11:47;102015.69;;;8.34;85.07
76321;BME280;65132;52.088;5.402;2023-03-20T09:14:17;102022.66;;;8.51;85.36
76321;BME280;65132;52.088;5.402;2023-03-20T09:16:49;102021.94;;;8.34;86.08
76321;BME280;65132;52.088;5.402;2023-03-20T09:19:18;102020.59;;;8.27;86.77
76321;BME280;65132;52.088;5.402;2023-03-20T09:21:48;102029.88;;;8.23;87.64
76321;BME280;65132;52.088;5.402;2023-03-20T09:24:15;102022.25;;;8.16;87.08
76321;BME280;65132;52.088;5.402;2023-03-20T09:26:41;102021.47;;;8.14;86.92
76321;BME280;65132;52.088;5.402;2023-03-20T09:29:15;102020.53;;;8.15;87.96
76321;BME280;65132;52.088;5.402;2023-03-20T09:42:54;102022.56;;;8.11;89.23
76321;BME280;65132;52.088;5.402;2023-03-20T09:45:32;102032.94;;;8.31;88.32
76321;BME280;65132;52.088;5.402;2023-03-20T09:48:10;102034.09;;;8.27;89.33
76321;BME280;65132;52.088;5.402;2023-03-20T09:54:12;102015.41;;;8.10;86.91
76321;BME280;65132;52.088;5.402;2023-03-20T09:56:37;102011.88;;;8.24;88.58
76321;BME280;65132;52.088;5.402;2023-03-20T09:59:06;102019.66;;;8.14;87.77
76321;BME280;65132;52.088;5.402;2023-03-20T10:04:17;102010.56;;;8.43;88.24
76321;BME280;65132;52.088;5.402;2023-03-20T10:06:44;102010.13;;;8.49;87.82
76321;BME280;65132;52.088;5.402;2023-03-20T10:09:23;102011.66;;;8.54;88.73
76321;BME280;65132;52.088;5.402;2023-03-20T10:22:47;101999.75;;;8.43;88.18
76321;BME280;65132;52.088;5.402;2023-03-20T10:25:30;102008.28;;;8.37;87.75
76321;BME280;65132;52.088;5.402;2023-03-20T10:28:11;102001.34;;;8.33;88.88
76321;BME280;65132;52.088;5.402;2023-03-20T10:33:48;101999.06;;;8.54;88.07
76321;BME280;65132;52.088;5.402;2023-03-20T10:41:37;102001.31;;;8.48;87.75
76321;BME280;65132;52.088;5.402;2023-03-20T10:44:43;101988.94;;;8.70;90.32
76321;BME280;65132;52.088;5.402;2023-03-20T10:47:12;101993.00;;;8.51;87.95
76321;BME280;65132;52.088;5.402;2023-03-20T10:50:15;102000.03;;;8.66;89.21
76321;BME280;65132;52.088;5.402;2023-03-20T10:52:37;101997.31;;;8.53;88.73
76321;BME280;65132;52.088;5.402;2023-03-20T10:55:18;101988.84;;;8.72;87.32
76321;BME280;65132;52.088;5.402;2023-03-20T10:58:06;101998.34;;;8.65;88.01
76321;BME280;65132;52.088;5.402;2023-03-20T11:00:37;102007.44;;;8.49;88.32
76321;BME280;65132;52.088;5.402;2023-03-20T11:03:05;101990.06;;;8.54;88.45
76321;BME280;65132;52.088;5.402;2023-03-20T11:08:13;101990.28;;;8.51;88.66
76321;BME280;65132;52.088;5.402;2023-03-20T11:10:42;101997.47;;;8.64;89.22
76321;BME280;65132;52.088;5.402;2023-03-20T11:13:24;101985.38;;;8.70;88.53
76321;BME280;65132;52.088;5.402;2023-03-20T11:15:53;101981.72;;;8.71;89.21
76321;BME280;65132;52.088;5.402;2023-03-20T11:18:23;101986.13;;;8.59;87.91
76321;BME280;65132;52.088;5.402;2023-03-20T11:20:54;101986.22;;;8.58;89.65
76321;BME280;65132;52.088;5.402;2023-03-20T11:23:31;101980.84;;;8.70;89.66
76321;BME280;65132;52.088;5.402;2023-03-20T11:26:03;101972.84;;;8.69;89.38
76321;BME280;65132;52.088;5.402;2023-03-20T11:28:36;101975.66;;;8.67;89.21
76321;BME280;65132;52.088;5.402;2023-03-20T11:31:31;101968.09;;;8.60;89.48
76321;BME280;65132;52.088;5.402;2023-03-20T11:34:20;101964.63;;;8.58;90.06
76321;BME280;65132;52.088;5.402;2023-03-20T11:36:58;101965.06;;;8.64;89.23
76321;BME280;65132;52.088;5.402;2023-03-20T11:39:36;101957.75;;;8.79;90.05
76321;BME280;65132;52.088;5.402;2023-03-20T11:42:21;101960.34;;;8.68;90.99
76321;BME280;65132;52.088;5.402;2023-03-20T11:44:56;101950.94;;;8.61;91.50
76321;BME280;65132;52.088;5.402;2023-03-20T11:47:26;101947.72;;;8.81;90.70
76321;BME280;65132;52.088;5.402;2023-03-20T11:49:57;101945.47;;;8.75;91.04
76321;BME280;65132;52.088;5.402;2023-03-20T11:52:44;101947.28;;;8.74;90.20
76321;BME280;65132;52.088;5.402;2023-03-20T11:57:50;101941.81;;;8.88;89.21
76321;BME280;65132;52.088;5.402;2023-03-20T12:00:22;101936.38;;;8.76;90.14
76321;BME280;65132;52.088;5.402;2023-03-20T12:02:50;101939.63;;;8.81;90.72
76321;BME280;65132;52.088;5.402;2023-03-20T12:08:08;101940.84;;;9.02;90.64
76321;BME280;65132;52.088;5.402;2023-03-20T12:10:44;101936.06;;;9.18;88.14
76321;BME280;65132;52.088;5.402;2023-03-20T12:13:30;101948.59;;;9.06;89.58
76321;BME280;65132;52.088;5.402;2023-03-20T12:16:10;101936.94;;;9.06;89.11
76321;BME280;65132;52.088;5.402;2023-03-20T12:18:42;101956.94;;;9.16;89.02
76321;BME280;65132;52.088;5.402;2023-03-20T12:21:20;101943.88;;;9.22;90.01
76321;BME280;65132;52.088;5.402;2023-03-20T12:23:52;101944.19;;;9.05;88.55
76321;BME280;65132;52.088;5.402;2023-03-20T12:26:31;101939.22;;;9.12;90.02
76321;BME280;65132;52.088;5.402;2023-03-20T12:31:59;101945.69;;;8.97;89.79
76321;BME280;65132;52.088;5.402;2023-03-20T12:34:41;101948.16;;;8.87;90.44
76321;BME280;65132;52.088;5.402;2023-03-20T12:37:12;101936.69;;;8.84;92.62
76321;BME280;65132;52.088;5.402;2023-03-20T12:45:23;101935.75;;;8.97;92.74
76321;BME280;65132;52.088;5.402;2023-03-20T12:51:00;101919.66;;;8.83;94.29
76321;BME280;65132;52.088;5.402;2023-03-20T12:53:54;101921.19;;;9.00;93.59
76321;BME280;65132;52.088;5.402;2023-03-20T13:01:49;101926.03;;;8.95;93.36
76321;BME280;65132;52.088;5.402;2023-03-20T13:07:21;101919.13;;;8.91;94.00
76321;BME280;65132;52.088;5.402;2023-03-20T13:10:02;101918.69;;;8.97;95.90
76321;BME280;65132;52.088;5.402;2023-03-20T13:17:53;101920.84;;;8.79;96.04
76321;BME280;65132;52.088;5.402;2023-03-20T13:20:29;101909.16;;;8.79;96.41
76321;BME280;65132;52.088;5.402;2023-03-20T13:28:30;101899.03;;;8.70;95.85
76321;BME280;65132;52.088;5.402;2023-03-20T13:31:33;101901.63;;;8.84;96.28
76321;BME280;65132;52.088;5.402;2023-03-20T13:34:30;101910.59;;;8.84;96.71
76321;BME280;65132;52.088;5.402;2023-03-20T13:40:41;101889.97;;;8.83;96.89
76321;BME280;65132;52.088;5.402;2023-03-20T13:43:12;101882.53;;;8.87;95.85
76321;BME280;65132;52.088;5.402;2023-03-20T13:45:43;101890.19;;;8.80;97.53
76321;BME280;65132;52.088;5.402;2023-03-20T13:48:41;101889.00;;;8.97;97.24
76321;BME280;65132;52.088;5.402;2023-03-20T13:51:32;101881.53;;;8.88;97.22
76321;BME280;65132;52.088;5.402;2023-03-20T13:54:40;101892.03;;;8.80;96.90
76321;BME280;65132;52.088;5.402;2023-03-20T14:02:50;101873.03;;;8.94;96.90
76321;BME280;65132;52.088;5.402;2023-03-20T14:05:37;101871.50;;;8.90;96.28
76321;BME280;65132;52.088;5.402;2023-03-20T14:13:36;101875.16;;;8.89;96.27
76321;BME280;65132;52.088;5.402;2023-03-20T14:16:07;101875.59;;;9.08;95.41
76321;BME280;65132;52.088;5.402;2023-03-20T14:18:34;101865.25;;;9.02;94.80
76321;BME280;65132;52.088;5.402;2023-03-20T14:21:08;101867.94;;;8.89;96.49
76321;BME280;65132;52.088;5.402;2023-03-20T14:23:51;101879.06;;;8.85;96.08
76321;BME280;65132;52.088;5.402;2023-03-20T14:26:33;101878.53;;;8.80;95.87
76321;BME280;65132;52.088;5.402;2023-03-20T14:31:40;101880.03;;;8.84;97.35
76321;BME280;65132;52.088;5.402;2023-03-20T14:37:04;101871.84;;;8.85;97.23
76321;BME280;65132;52.088;5.402;2023-03-20T14:39:40;101886.41;;;8.83;97.49
76321;BME280;65132;52.088;5.402;2023-03-20T14:48:01;101875.09;;;8.90;98.41
76321;BME280;65132;52.088;5.402;2023-03-20T14:50:38;101863.63;;;8.87;97.16
76321;BME280;65132;52.088;5.402;2023-03-20T15:01:23;101872.25;;;8.67;98.87
76321;BME280;65132;52.088;5.402;2023-03-20T15:04:05;101877.13;;;8.74;99.38
76321;BME280;65132;52.088;5.402;2023-03-20T15:06:42;101861.91;;;8.73;100.00
76321;BME280;65132;52.088;5.402;2023-03-20T15:09:14;101863.19;;;8.68;100.00
76321;BME280;65132;52.088;5.402;2023-03-20T15:11:42;101863.19;;;8.68;99.96
76321;BME280;65132;52.088;5.402;2023-03-20T15:14:09;101866.97;;;8.78;100.00
76321;BME280;65132;52.088;5.402;2023-03-20T15:16:43;101855.31;;;8.65;100.00
76321;BME280;65132;52.088;5.402;2023-03-20T15:19:17;101868.38;;;8.71;100.00
76321;BME280;65132;52.088;5.402;2023-03-20T15:21:45;101862.00;;;8.59;99.82
76321;BME280;65132;52.088;5.402;2023-03-20T15:24:30;101860.50;;;8.68;100.00
76321;BME280;65132;52.088;5.402;2023-03-20T15:26:58;101864.25;;;8.65;100.00
76321;BME280;65132;52.088;5.402;2023-03-20T15:29:29;101859.75;;;8.66;100.00
76321;BME280;65132;52.088;5.402;2023-03-20T15:31:58;101865.56;;;8.72;100.00
76321;BME280;65132;52.088;5.402;2023-03-20T15:34:40;101864.47;;;8.62;100.00
76321;BME280;65132;52.088;5.402;2023-03-20T15:37:12;101852.06;;;8.72;100.00
76321;BME280;65132;52.088;5.402;2023-03-20T15:39:53;101851.09;;;8.61;100.00
76321;BME280;65132;52.088;5.402;2023-03-20T15:42:23;101853.25;;;8.56;100.00
76321;BME280;65132;52.088;5.402;2023-03-20T15:44:53;101849.69;;;8.55;100.00
76321;BME280;65132;52.088;5.402;2023-03-20T15:47:22;101855.19;;;8.54;100.00
76321;BME280;65132;52.088;5.402;2023-03-20T15:49:58;101845.28;;;8.54;100.00
76321;BME280;65132;52.088;5.402;2023-03-20T15:52:42;101847.00;;;8.55;100.00
76321;BME280;65132;52.088;5.402;2023-03-20T15:55:16;101846.88;;;8.57;100.00
76321;BME280;65132;52.088;5.402;2023-03-20T15:57:44;101850.88;;;8.51;100.00
76321;BME280;65132;52.088;5.402;2023-03-20T16:00:35;101839.88;;;8.54;100.00